Time;durP1;ratioP1;P1;durP2;ratioP2;P2;SDS_P1;SDS_P2;PMS_P1;PMS_P2;Temp;Humidity;BMP_temperature;BMP_pressure;BME280_temperature;BME280_humidity;BME280_pressure;Samples;Min_cycle;Max_cycle;Signal;HPM_P1;HPM_P2
2022/12/06 00:00:18;;;;;;;8.30;5.07;;;4.00;99.90;;;3.70;100.00;101373.94;5180889;28;20046;-70
2022/12/06 00:02:51;;;;;;;8.48;4.80;;;4.00;99.90;;;3.70;100.00;101368.78;5182649;28;20567;-70
2022/12/06 00:05:23;;;;;;;7.18;3.63;;;4.00;99.90;;;3.72;100.00;101372.41;5182516;28;20398;-70
2022/12/06 00:07:55;;;;;;;8.25;4.63;;;4.00;99.90;;;3.73;100.00;101369.03;5181644;28;20038;-70
2022/12/06 00:10:27;;;;;;;8.43;4.35;;;4.00;99.90;;;3.73;100.00;101371.59;5181852;28;20050;-70
2022/12/06 00:13:03;;;;;;;6.78;4.50;;;4.00;99.90;;;3.74;100.00;101375.97;5180675;28;20042;-70
2022/12/06 00:15:36;;;;;;;8.23;4.57;;;4.00;99.90;;;3.76;100.00;101374.38;5182682;28;20096;-70
2022/12/06 00:18:08;;;;;;;7.43;4.28;;;4.00;99.90;;;3.76;100.00;101364.97;5185449;28;20533;-70
2022/12/06 00:20:40;;;;;;;7.80;4.13;;;4.00;99.90;;;3.78;100.00;101370.22;5184713;28;20467;-70
2022/12/06 00:23:12;;;;;;;8.68;4.93;;;4.00;99.90;;;3.78;100.00;101354.75;5186076;28;20049;-70
2022/12/06 00:25:45;;;;;;;8.30;3.95;;;4.10;99.90;;;3.80;100.00;101360.94;5184851;28;20455;-70
2022/12/06 00:28:19;;;;;;;8.40;4.18;;;4.10;99.90;;;3.82;100.00;101359.34;5185934;28;20046;-70
2022/12/06 00:30:51;;;;;;;7.65;4.15;;;4.10;99.90;;;3.84;100.00;101368.09;5185744;28;20052;-70
2022/12/06 00:33:23;;;;;;;8.55;5.07;;;4.10;99.90;;;3.83;100.00;101361.13;5186187;28;20384;-70
2022/12/06 00:35:56;;;;;;;7.82;4.28;;;4.10;99.90;;;3.83;100.00;101361.13;5186075;28;20050;-70
2022/12/06 00:38:29;;;;;;;8.38;3.97;;;4.10;99.90;;;3.83;100.00;101361.13;5186526;28;20046;-70
2022/12/06 00:41:05;;;;;;;7.45;4.50;;;4.10;99.90;;;3.83;100.00;101352.50;5184109;28;20514;-70
2022/12/06 00:43:39;;;;;;;8.38;4.30;;;4.10;99.90;;;3.80;100.00;101353.19;5186088;28;20558;-70
2022/12/06 00:46:16;;;;;;;7.53;4.18;;;4.10;99.90;;;3.80;100.00;101360.94;5185674;28;20121;-70
2022/12/06 00:48:49;;;;;;;7.82;4.50;;;4.10;99.90;;;3.79;100.00;101356.56;5185905;28;20049;-70
2022/12/06 00:51:23;;;;;;;9.15;5.07;;;4.10;99.90;;;3.79;100.00;101364.31;5185788;28;20042;-70
2022/12/06 00:53:55;;;;;;;7.47;4.63;;;4.10;99.90;;;3.80;100.00;101350.63;5183116;28;20041;-70
2022/12/06 00:56:28;;;;;;;7.43;3.83;;;4.10;99.90;;;3.82;100.00;101349.03;5185091;28;20053;-70
2022/12/06 00:59:01;;;;;;;8.10;4.43;;;4.10;99.90;;;3.86;100.00;101355.31;5185772;28;20046;-70
2022/12/06 01:01:35;;;;;;;7.55;4.20;;;4.10;99.90;;;3.89;100.00;101355.53;5186496;28;20049;-70
2022/12/06 01:04:08;;;;;;;8.32;4.82;;;4.10;99.90;;;3.92;100.00;101350.59;5184198;28;20515;-70
2022/12/06 01:06:40;;;;;;;8.77;4.60;;;4.20;99.90;;;3.95;100.00;101355.94;5185468;28;20092;-70
2022/12/06 01:09:13;;;;;;;8.00;4.57;;;4.20;99.90;;;3.96;100.00;101353.47;5184978;28;20052;-70
2022/12/06 01:11:45;;;;;;;8.95;4.82;;;4.20;99.90;;;3.99;100.00;101352.81;5185032;28;20034;-70
2022/12/06 01:14:18;;;;;;;8.05;4.68;;;4.20;99.90;;;4.01;100.00;101357.28;5184407;28;20053;-70
2022/12/06 01:16:51;;;;;;;8.63;5.30;;;4.20;99.90;;;4.01;100.00;101346.97;5184943;28;20078;-70
2022/12/06 01:19:23;;;;;;;9.70;5.57;;;4.20;99.90;;;4.01;100.00;101348.66;5185321;28;20034;-70
2022/12/06 01:21:55;;;;;;;12.05;5.45;;;4.30;99.90;;;4.01;100.00;101351.22;5183418;28;20485;-70
2022/12/06 01:24:28;;;;;;;8.18;3.85;;;4.30;99.90;;;4.02;100.00;101353.91;5182436;28;20405;-69
2022/12/06 01:27:00;;;;;;;9.38;5.20;;;4.30;99.90;;;4.02;100.00;101348.75;5183801;28;20045;-70
2022/12/06 01:29:34;;;;;;;8.60;4.95;;;4.30;99.90;;;4.03;100.00;101354.78;5183901;28;20053;-70
2022/12/06 01:32:07;;;;;;;8.80;4.70;;;4.30;99.90;;;4.03;100.00;101359.97;5184373;28;20060;-70
2022/12/06 01:34:39;;;;;;;10.00;5.05;;;4.30;99.90;;;4.02;100.00;101359.06;5184196;28;20510;-70
2022/12/06 01:37:11;;;;;;;9.98;5.15;;;4.30;99.90;;;4.03;100.00;101359.97;5184318;28;20050;-70
2022/12/06 01:39:44;;;;;;;8.77;4.57;;;4.30;99.90;;;4.06;100.00;101353.34;5185092;28;20387;-70
2022/12/06 01:42:17;;;;;;;8.23;5.30;;;4.30;99.90;;;4.08;100.00;101354.34;5184246;28;20049;-70
2022/12/06 01:44:52;;;;;;;9.00;4.90;;;4.30;99.90;;;4.11;100.00;101357.91;5184281;28;20410;-70
2022/12/06 01:47:28;;;;;;;11.45;5.40;;;4.30;99.90;;;4.09;100.00;101360.38;5184392;28;20524;-70
2022/12/06 01:50:04;;;;;;;8.27;4.72;;;4.30;99.90;;;4.08;100.00;101354.34;5183118;28;20246;-70
2022/12/06 01:52:51;;;;;;;7.93;4.45;;;4.30;99.90;;;4.09;100.00;101355.22;5183776;28;20053;-70
2022/12/06 01:55:28;;;;;;;9.43;4.85;;;4.30;99.90;;;4.10;100.00;101359.59;5185040;28;20069;-70
2022/12/06 01:58:07;;;;;;;11.27;5.53;;;4.40;99.90;;;4.12;100.00;101355.47;5185261;28;20046;-70
2022/12/06 02:00:41;;;;;;;10.88;5.00;;;4.30;99.90;;;4.12;100.00;101354.56;5182480;28;20064;-70
2022/12/06 02:03:21;;;;;;;8.35;4.70;;;4.40;99.90;;;4.11;100.00;101347.59;5184030;28;20076;-70
2022/12/06 02:05:56;;;;;;;9.98;5.53;;;4.40;99.90;;;4.09;100.00;101345.78;5183590;28;20046;-70
2022/12/06 02:08:29;;;;;;;9.98;5.32;;;4.30;99.90;;;4.08;100.00;101351.75;5183792;28;20056;-70
2022/12/06 02:11:03;;;;;;;10.75;5.93;;;4.30;99.90;;;4.06;100.00;101345.59;5184143;28;20034;-70
2022/12/06 02:13:36;;;;;;;10.63;5.55;;;4.30;99.90;;;4.04;100.00;101336.88;5184256;28;20056;-70
2022/12/06 02:16:31;;;;;;;11.18;5.85;;;4.30;99.90;;;4.05;100.00;101337.75;5184822;28;20511;-70
2022/12/06 02:19:27;;;;;;;9.43;5.00;;;4.30;99.90;;;4.05;100.00;101338.66;5183143;28;20489;-70
2022/12/06 02:22:06;;;;;;;10.32;4.60;;;4.30;99.90;;;4.07;100.00;101336.19;5184064;28;20049;-70
2022/12/06 02:25:17;;;;;;;10.70;5.28;;;4.30;99.90;;;4.09;100.00;101337.16;5182735;28;20046;-70
2022/12/06 02:28:10;;;;;;;9.32;4.75;;;4.30;99.90;;;4.11;100.00;101337.25;5143238;28;20062;-70
2022/12/06 02:30:47;;;;;;;9.25;4.97;;;4.40;99.90;;;4.12;100.00;101336.50;5184952;28;20486;-70
2022/12/06 02:33:24;;;;;;;10.88;5.15;;;4.40;99.90;;;4.12;100.00;101336.50;5182646;28;20522;-70
2022/12/06 02:36:06;;;;;;;10.18;4.90;;;4.30;99.90;;;4.13;100.00;101335.72;5165918;28;20081;-70
2022/12/06 02:38:47;;;;;;;10.20;5.20;;;4.40;99.90;;;4.10;100.00;101331.22;5163105;28;20519;-70
2022/12/06 02:41:24;;;;;;;11.18;5.35;;;4.40;99.90;;;4.05;100.00;101338.66;5164152;28;20399;-70
2022/12/06 02:44:04;;;;;;;9.65;5.00;;;4.30;99.90;;;3.99;100.00;101329.59;5178649;28;20058;-70
2022/12/06 02:46:40;;;;;;;10.05;5.80;;;4.30;99.90;;;3.99;100.00;101324.44;5184518;28;20351;-70
2022/12/06 02:49:14;;;;;;;12.10;5.18;;;4.30;99.90;;;3.97;100.00;101313.97;5184806;28;20038;-70
2022/12/06 02:51:49;;;;;;;13.80;7.15;;;4.30;99.90;;;3.95;100.00;101313.00;5184438;28;20402;-70
2022/12/06 02:54:22;;;;;;;11.60;5.90;;;4.20;99.90;;;3.93;100.00;101312.00;5184157;28;20046;-70
2022/12/06 02:56:55;;;;;;;14.25;6.38;;;4.20;99.90;;;3.93;100.00;101317.16;5185324;28;20117;-71
2022/12/06 02:59:27;;;;;;;12.35;6.10;;;4.20;99.90;;;3.94;100.00;101321.53;5185345;28;20041;-71
2022/12/06 03:02:04;;;;;;;14.23;6.20;;;4.20;99.90;;;3.95;100.00;101319.84;5183659;28;20266;-72
2022/12/06 03:04:57;;;;;;;12.30;6.07;;;4.20;99.90;;;3.96;100.00;101321.63;5184801;28;20503;-71
2022/12/06 03:07:40;;;;;;;14.02;6.78;;;4.20;99.90;;;3.95;100.00;101328.47;5184072;28;20046;-72
2022/12/06 03:10:28;;;;;;;13.40;6.50;;;4.20;99.90;;;3.93;100.00;101327.47;5183887;28;20045;-72
2022/12/06 03:13:09;;;;;;;13.07;6.65;;;4.20;99.90;;;3.95;100.00;101331.06;5184009;28;20049;-71
2022/12/06 03:15:54;;;;;;;13.23;5.93;;;4.20;99.90;;;3.96;100.00;101322.50;5182058;28;20046;-71
2022/12/06 03:18:34;;;;;;;12.98;5.47;;;4.20;99.90;;;4.00;100.00;101321.06;5183688;28;20471;-72
2022/12/06 03:21:11;;;;;;;12.30;6.38;;;4.20;99.90;;;4.00;100.00;101314.22;5182402;28;20049;-71
2022/12/06 03:23:47;;;;;;;13.57;6.47;;;4.30;99.90;;;4.01;100.00;101310.84;5183533;28;20406;-71
2022/12/06 03:26:23;;;;;;;12.07;5.82;;;4.30;99.90;;;4.02;100.00;101317.78;5183760;28;20046;-72
2022/12/06 03:28:58;;;;;;;10.35;4.97;;;4.30;99.90;;;4.07;100.00;101308.69;5184018;28;20120;-72
2022/12/06 03:31:34;;;;;;;13.25;5.43;;;4.30;99.90;;;4.08;100.00;101307.88;5183375;28;20046;-72
2022/12/06 03:34:15;;;;;;;11.15;5.32;;;4.30;99.90;;;4.10;100.00;101310.56;5183398;28;20053;-71
2022/12/06 03:36:50;;;;;;;12.02;5.13;;;4.40;99.90;;;4.11;100.00;101306.28;5183383;28;20046;-71
2022/12/06 03:39:29;;;;;;;11.57;5.55;;;4.40;99.90;;;4.08;100.00;101312.16;5183797;28;20514;-72
2022/12/06 03:42:02;;;;;;;11.13;5.50;;;4.30;99.90;;;4.08;100.00;101310.47;5183517;28;20052;-72
2022/12/06 03:44:35;;;;;;;13.02;5.57;;;4.30;99.90;;;4.09;100.00;101308.78;5182840;28;20053;-71
2022/12/06 03:47:14;;;;;;;13.05;5.63;;;4.30;99.90;;;4.11;100.00;101311.47;5183618;28;20050;-72
2022/12/06 03:49:52;;;;;;;12.90;6.10;;;4.40;99.90;;;4.11;100.00;101303.72;5182160;28;20049;-71
2022/12/06 03:52:25;;;;;;;12.57;5.60;;;4.40;99.90;;;4.09;100.00;101299.34;5183539;28;20050;-72
2022/12/06 03:54:57;;;;;;;13.60;6.55;;;4.40;99.90;;;4.07;100.00;101300.94;5181535;28;20054;-71
2022/12/06 03:57:29;;;;;;;14.10;6.55;;;4.40;99.90;;;4.07;100.00;101316.44;5181907;28;20049;-71
2022/12/06 04:00:01;;;;;;;14.85;6.25;;;4.30;99.90;;;4.06;100.00;101306.91;5182433;28;20410;-72
2022/12/06 04:02:33;;;;;;;14.25;6.07;;;4.30;99.90;;;4.05;100.00;101301.63;5183424;28;20046;-72
2022/12/06 04:05:08;;;;;;;13.55;5.75;;;4.30;99.90;;;4.06;100.00;101306.00;5181906;28;20517;-71
2022/12/06 04:07:40;;;;;;;16.42;7.00;;;4.30;99.90;;;4.04;100.00;101303.34;5183027;28;20046;-72
2022/12/06 04:10:12;;;;;;;15.32;6.57;;;4.30;99.90;;;4.06;100.00;101300.84;5183560;28;20048;-72
2022/12/06 04:13:04;;;;;;;13.00;5.95;;;4.30;99.90;;;4.08;100.00;101301.84;5183123;28;20728;-71
2022/12/06 04:15:39;;;;;;;15.50;6.18;;;4.30;99.90;;;4.09;100.00;101301.03;5182981;28;20526;-72
2022/12/06 04:18:12;;;;;;;13.57;5.72;;;4.40;99.90;;;4.09;100.00;101306.19;5183182;28;20050;-71
2022/12/06 04:23:42;;;;;;;14.25;6.43;;;4.30;99.90;;;4.11;100.00;101304.66;5182852;28;20462;-72
2022/12/06 04:26:17;;;;;;;15.02;6.18;;;4.40;99.90;;;4.16;100.00;101299.78;5182974;28;20053;-71
2022/12/06 04:40:12;;;;;;;12.68;6.18;;;4.40;99.90;;;4.15;100.00;101298.88;5181830;28;20050;-72
2022/12/06 04:45:34;;;;;;;16.90;6.60;;;4.40;99.90;;;4.12;100.00;101297.78;5182496;28;20077;-71
2022/12/06 04:48:06;;;;;;;14.75;6.22;;;4.40;99.90;;;4.13;100.00;101297.88;5182747;28;20053;-70
2022/12/06 04:50:38;;;;;;;20.80;8.40;;;4.40;99.90;;;4.17;100.00;101301.56;5183124;28;20060;-71
2022/12/06 04:53:11;;;;;;;18.38;7.43;;;4.40;99.90;;;4.13;100.00;101295.31;5182987;28;20045;-70
2022/12/06 04:55:46;;;;;;;16.65;7.00;;;4.40;99.90;;;4.13;100.00;101299.59;5182560;28;20418;-70
2022/12/06 04:58:18;;;;;;;16.75;6.53;;;4.40;99.90;;;4.11;100.00;101295.97;5182867;28;20521;-71
2022/12/06 05:00:51;;;;;;;18.23;7.78;;;4.40;99.90;;;4.08;100.00;101302.72;5183042;28;20507;-71
2022/12/06 05:03:24;;;;;;;18.65;7.38;;;4.40;99.90;;;4.06;100.00;101304.31;5185926;28;20056;-72
2022/12/06 05:05:56;;;;;;;16.83;6.93;;;4.40;99.90;;;4.07;100.00;101306.09;5186318;28;20042;-71
2022/12/06 05:08:30;;;;;;;18.65;7.70;;;4.40;99.90;;;4.09;100.00;101299.34;5186401;28;20046;-71
2022/12/06 05:11:03;;;;;;;16.17;6.82;;;4.40;99.90;;;4.12;100.00;101293.53;5184803;28;20104;-71
2022/12/06 05:13:35;;;;;;;18.80;7.25;;;4.40;99.90;;;4.14;100.00;101296.22;5186165;28;20419;-71
2022/12/06 05:16:09;;;;;;;15.80;6.22;;;4.40;99.90;;;4.17;100.00;101286.97;5186737;28;20393;-71
2022/12/06 05:18:41;;;;;;;22.80;9.68;;;4.40;99.90;;;4.19;100.00;101287.09;5186135;28;20042;-71
2022/12/06 05:21:17;;;;;;;16.23;7.63;;;4.50;99.90;;;4.18;100.00;101295.63;5185998;28;20057;-71
2022/12/06 05:23:52;;;;;;;;;;;4.40;99.90;;;4.19;100.00;101284.53;5186548;28;20049;-70
2022/12/06 05:26:27;;;;;;;16.50;7.30;;;4.50;99.90;;;4.21;100.00;101293.25;5186161;28;19929;-71
2022/12/06 05:28:59;;;;;;;17.35;7.57;;;4.50;99.90;;;4.23;100.00;101289.97;5186190;28;20541;-71
2022/12/06 05:31:31;;;;;;;19.00;8.00;;;4.50;99.90;;;4.24;100.00;101289.22;5186079;28;20442;-71
2022/12/06 05:34:04;;;;;;;18.60;7.93;;;4.50;99.90;;;4.25;100.00;101293.56;5184307;28;20061;-70
2022/12/06 05:36:36;;;;;;;18.88;7.75;;;4.50;99.90;;;4.27;100.00;101296.25;5185888;28;20425;-70
2022/12/06 05:39:10;;;;;;;18.45;7.55;;;4.50;99.90;;;4.29;100.00;101302.41;5185615;28;20120;-70
2022/12/06 05:41:42;;;;;;;20.20;8.68;;;4.50;99.90;;;4.29;100.00;101299.81;5285231;23;20038;-71
2022/12/06 05:44:14;;;;;;;28.08;9.18;;;4.60;99.90;;;4.29;100.00;101297.22;5154874;28;20045;-71
2022/12/06 05:46:46;;;;;;;23.45;9.70;;;4.60;99.90;;;4.27;100.00;101293.66;5165737;28;20057;-69
2022/12/06 05:49:19;;;;;;;20.02;8.77;;;4.50;99.90;;;4.25;100.00;101292.69;5164484;28;20050;-69
2022/12/06 05:51:51;;;;;;;19.58;9.27;;;4.50;99.90;;;4.26;100.00;101294.47;5166392;28;20050;-69
2022/12/06 05:54:24;;;;;;;16.38;7.20;;;4.50;99.90;;;4.29;100.00;101294.66;5166548;28;20138;-69
2022/12/06 05:56:58;;;;;;;18.10;7.65;;;4.50;99.90;;;4.33;100.00;101288.91;5166714;28;20050;-71
2022/12/06 05:59:30;;;;;;;15.70;7.43;;;4.60;99.90;;;4.36;100.00;101294.28;5166552;28;20129;-70
2022/12/06 06:02:03;;;;;;;15.23;6.82;;;4.60;99.90;;;4.39;100.00;101297.09;5165449;28;20053;-68
2022/12/06 06:04:35;;;;;;;15.82;7.40;;;4.60;99.90;;;4.42;100.00;101297.28;5165420;28;20050;-69
2022/12/06 06:07:07;;;;;;;16.33;6.72;;;4.70;99.90;;;4.45;100.00;101305.25;5164094;28;20057;-68
2022/12/06 06:09:41;;;;;;;18.05;7.03;;;4.70;99.90;;;4.45;100.00;101300.06;5165631;28;20071;-72
2022/12/06 06:12:13;;;;;;;16.85;7.13;;;4.70;99.90;;;4.44;100.00;101297.41;5165494;28;20034;-73
2022/12/06 06:14:45;;;;;;;14.45;6.22;;;4.70;99.90;;;4.45;100.00;101302.66;5164918;28;20042;-71
2022/12/06 06:17:17;;;;;;;13.02;6.13;;;4.70;99.90;;;4.47;100.00;101303.66;5165398;28;20121;-72
2022/12/06 06:19:49;;;;;;;14.77;6.00;;;4.70;99.90;;;4.50;100.00;101303.88;5164731;28;20050;-72
2022/12/06 06:22:23;;;;;;;14.85;6.22;;;4.70;99.90;;;4.53;100.00;101309.22;5165248;28;20038;-69
2022/12/06 06:24:56;;;;;;;15.00;5.78;;;4.80;99.90;;;4.54;100.00;101308.44;5164916;28;20046;-69
2022/12/06 06:27:32;;;;;;;12.73;5.93;;;4.80;99.90;;;4.54;100.00;101308.44;5164879;28;20054;-69
2022/12/06 06:30:07;;;;;;;14.25;5.90;;;4.80;99.90;;;4.56;100.00;101309.44;5164788;28;20580;-69
2022/12/06 06:32:39;;;;;;;14.27;6.68;;;4.80;99.90;;;4.55;100.00;101312.78;5165049;28;20065;-68
2022/12/06 06:35:12;;;;;;;16.75;6.30;;;4.80;99.90;;;4.54;100.00;101311.00;5164968;28;20053;-70
2022/12/06 06:37:46;;;;;;;15.43;6.45;;;4.80;99.90;;;4.54;100.00;101304.94;5164475;28;20050;-70
2022/12/06 06:40:20;;;;;;;13.35;5.30;;;4.80;99.90;;;4.55;100.00;101302.47;5164541;28;20046;-73
2022/12/06 06:42:53;;;;;;;16.50;6.40;;;4.80;99.90;;;4.57;100.00;101300.91;5179668;28;20050;-71
2022/12/06 06:45:25;;;;;;;15.38;6.00;;;4.80;99.90;;;4.57;100.00;101303.47;5164215;28;20054;-70
2022/12/06 06:47:57;;;;;;;13.70;5.00;;;4.80;99.90;;;4.59;100.00;101296.72;5164383;28;20053;-71
2022/12/06 06:50:29;;;;;;;16.98;6.80;;;4.80;99.90;;;4.58;100.00;101302.69;5164557;28;20054;-74
2022/12/06 06:53:01;;;;;;;17.42;6.55;;;4.80;99.90;;;4.55;100.00;101302.47;5163595;28;20042;-76
2022/12/06 06:55:36;;;;;;;15.27;6.45;;;4.80;99.90;;;4.55;100.00;101307.63;5163322;28;20550;-74
2022/12/06 06:58:09;;;;;;;18.65;6.88;;;4.80;99.90;;;4.55;100.00;101299.88;5164715;28;20418;-76
2022/12/06 07:03:42;;;;;;;18.58;7.30;;;4.80;99.90;;;4.45;100.00;101294.91;5160838;28;20042;-69
2022/12/06 07:06:14;;;;;;;16.77;7.03;;;4.70;99.90;;;4.45;100.00;101299.19;5164379;28;20046;-61
2022/12/06 07:08:47;;;;;;;15.43;6.35;;;4.70;99.90;;;4.44;100.00;101298.28;5164186;28;20529;-61
2022/12/06 07:11:20;;;;;;;16.23;6.38;;;4.70;99.90;;;4.45;100.00;101300.06;5163860;28;20053;-61
2022/12/06 07:13:52;;;;;;;15.20;6.05;;;4.70;99.90;;;4.46;100.00;101295.81;5163922;28;20068;-61
2022/12/06 07:16:24;;;;;;;14.25;5.97;;;4.70;99.90;;;4.46;100.00;101295.81;5162815;28;20054;-60
2022/12/06 07:18:57;;;;;;;14.82;5.82;;;4.70;99.90;;;4.48;100.00;101295.09;5163900;28;20060;-60
2022/12/06 07:21:29;;;;;;;14.38;5.75;;;4.80;99.90;;;4.53;100.00;101304.06;5163872;28;20049;-60
2022/12/06 07:24:01;;;;;;;17.75;6.72;;;4.80;99.90;;;4.55;100.00;101302.47;5163010;28;20053;-62
2022/12/06 07:26:35;;;;;;;15.30;6.55;;;4.80;99.90;;;4.54;100.00;101294.63;5163429;28;20050;-61
2022/12/06 07:29:08;;;;;;;17.13;7.18;;;4.80;99.90;;;4.53;100.00;101304.06;5163874;28;20053;-60
2022/12/06 07:31:40;;;;;;;16.35;6.68;;;4.80;99.90;;;4.52;100.00;101299.69;5163881;28;20065;-61
2022/12/06 07:34:12;;;;;;;18.40;7.13;;;4.80;99.90;;;4.54;100.00;101311.00;5163190;28;20121;-60
2022/12/06 07:36:44;;;;;;;15.35;6.72;;;4.80;99.90;;;4.53;100.00;101303.16;5163199;28;20046;-60
2022/12/06 07:39:16;;;;;;;21.80;7.90;;;4.80;99.90;;;4.51;100.00;101304.75;5163925;28;20521;-58
2022/12/06 07:45:06;;;;;;;18.38;7.20;;;4.80;99.90;;;4.48;100.00;101304.53;5161860;28;20104;-61
2022/12/06 07:47:40;;;;;;;18.80;7.43;;;4.70;99.90;;;4.51;100.00;101307.34;5163132;28;20054;-60
2022/12/06 07:50:16;;;;;;;19.15;7.28;;;4.80;99.90;;;4.51;100.00;101299.59;5163402;28;20502;-59
2022/12/06 07:52:50;;;;;;;18.13;7.00;;;4.80;99.90;;;4.53;100.00;101304.06;5163137;28;20056;-59
2022/12/06 07:55:22;;;;;;;20.90;7.82;;;4.80;99.90;;;4.53;100.00;101304.06;5162912;28;20042;-60
2022/12/06 07:57:56;;;;;;;20.75;8.27;;;4.80;99.90;;;4.52;100.00;101310.03;5162902;28;20053;-60
2022/12/06 08:00:28;;;;;;;21.05;8.73;;;4.80;99.90;;;4.51;100.00;101307.34;5162535;28;20117;-58
2022/12/06 08:03:01;;;;;;;22.90;8.20;;;4.80;99.90;;;4.52;100.00;101307.44;5163272;28;20042;-61
2022/12/06 08:05:33;;;;;;;21.63;8.07;;;4.80;99.90;;;4.54;100.00;101311.00;5162747;28;20046;-61
2022/12/06 08:08:06;;;;;;;20.50;8.00;;;4.80;99.90;;;4.53;100.00;101305.75;5163405;28;20495;-61
2022/12/06 08:10:38;;;;;;;20.58;8.07;;;4.80;99.90;;;4.49;100.00;101308.91;5163598;28;20507;-60
2022/12/06 08:13:12;;;;;;;20.50;8.40;;;4.80;99.90;;;4.48;100.00;101308.00;5163193;28;20046;-62
2022/12/06 08:15:44;;;;;;;24.25;9.35;;;4.80;99.90;;;4.49;100.00;101308.91;5154513;28;20050;-60
2022/12/06 08:18:16;;;;;;;22.27;7.57;;;4.80;99.90;;;4.47;100.00;101311.38;5161785;28;20499;-54
2022/12/06 08:20:49;;;;;;;18.42;7.82;;;4.80;99.90;;;4.51;100.00;101315.97;5142198;28;20054;-55
2022/12/06 08:23:21;;;;;;;23.83;8.60;;;4.80;99.90;;;4.54;100.00;101321.34;5179708;28;20503;-57
2022/12/06 08:25:58;;;;;;;24.05;7.97;;;4.80;99.90;;;5.45;100.00;101325.56;5182471;28;20422;-57
2022/12/06 08:28:33;;;;;;;23.55;8.40;;;5.80;99.90;;;5.54;100.00;101328.75;5183670;28;20490;-56
2022/12/06 08:31:08;;;;;;;23.60;8.82;;;5.80;99.90;;;5.35;100.00;101330.97;5181486;28;20050;-57
2022/12/06 08:33:41;;;;;;;24.23;9.23;;;5.70;99.90;;;5.16;100.00;101322.00;5180291;28;20049;-55
2022/12/06 08:36:17;;;;;;;21.45;8.57;;;5.50;99.90;;;5.02;100.00;101332.22;5182189;28;20046;-59
2022/12/06 08:38:50;;;;;;;24.92;8.93;;;5.40;99.90;;;4.96;100.00;101335.31;5174314;28;20042;-61
2022/12/06 08:44:16;;;;;;;21.63;8.48;;;5.40;99.90;;;5.05;100.00;101333.34;5162787;28;20057;-57
2022/12/06 08:46:49;;;;;;;23.25;8.88;;;5.40;99.90;;;5.02;100.00;101338.31;5163917;28;20060;-56
2022/12/06 08:49:23;;;;;;;23.30;8.35;;;5.40;99.90;;;4.98;100.00;101336.31;5167430;28;20042;-54
2022/12/06 08:51:58;;;;;;;25.52;8.68;;;5.30;99.90;;;4.95;100.00;101336.09;5166171;28;20395;-59
2022/12/06 08:54:30;;;;;;;26.75;9.93;;;5.20;99.90;;;4.90;100.00;101332.34;5165505;28;20068;-54
2022/12/06 08:57:02;;;;;;;27.08;10.38;;;5.20;99.90;;;4.86;100.00;101330.34;5165743;28;20054;-55
2022/12/06 08:59:36;;;;;;;24.35;8.18;;;5.10;99.90;;;4.86;100.00;101332.91;5165451;28;20087;-55
2022/12/06 09:02:10;;;;;;;20.08;8.35;;;5.20;99.90;;;4.86;100.00;101331.22;5165904;28;20042;-55
2022/12/06 09:04:42;;;;;;;26.13;8.50;;;5.10;99.90;;;4.89;100.00;101336.63;5165971;28;20061;-55
2022/12/06 09:07:14;;;;;;;23.42;8.20;;;5.10;99.90;;;4.92;100.00;101341.06;5166325;28;20506;-56
2022/12/06 09:09:46;;;;;;;21.40;6.97;;;5.20;99.90;;;4.94;100.00;101341.16;5165715;28;20046;-55
2022/12/06 09:12:18;;;;;;;24.92;8.57;;;5.20;99.90;;;4.95;100.00;101335.19;5165679;28;20050;-56
2022/12/06 09:14:52;;;;;;;20.67;8.15;;;5.20;99.90;;;4.96;100.00;101337.03;5165860;28;20046;-56
2022/12/06 09:17:24;;;;;;;25.27;8.70;;;5.20;99.90;;;4.97;100.00;101336.22;5165552;28;20104;-58
2022/12/06 09:19:56;;;;;;;22.70;8.27;;;5.20;99.90;;;4.97;100.00;101339.69;5165159;28;20050;-58
2022/12/06 09:22:28;;;;;;;21.17;9.05;;;5.20;99.90;;;4.99;100.00;101338.09;5165797;28;20443;-58
2022/12/06 09:25:00;;;;;;;23.73;7.60;;;5.20;99.90;;;5.02;100.00;101337.38;5165201;28;20058;-57
2022/12/06 09:27:32;;;;;;;20.13;7.38;;;5.20;99.90;;;5.03;100.00;101337.50;5165994;28;20052;-58
2022/12/06 09:30:08;;;;;;;21.52;7.85;;;5.20;99.90;;;5.06;100.00;101347.16;5165568;28;20066;-59
2022/12/06 09:32:40;;;;;;;21.17;8.02;;;5.20;99.90;;;5.06;100.00;101344.56;5165490;28;20045;-56
2022/12/06 09:35:12;;;;;;;20.27;8.68;;;5.30;99.90;;;5.07;100.00;101347.25;5164493;28;20046;-56
2022/12/06 09:37:44;;;;;;;23.98;6.88;;;5.30;99.90;;;5.09;100.00;101350.84;5166278;28;20376;-57
2022/12/06 09:40:24;;;;;;;19.75;7.25;;;5.40;99.90;;;5.11;100.00;101354.41;5166154;28;20414;-56
2022/12/06 09:43:08;;;;;;;19.00;7.30;;;5.40;99.90;;;5.12;100.00;101351.03;5166088;28;20046;-56
2022/12/06 09:46:16;;;;;;;16.67;6.72;;;5.40;99.90;;;5.15;100.00;101361.59;5165781;28;20046;-57
2022/12/06 09:49:23;;;;;;;19.15;7.95;;;5.40;99.90;;;5.15;100.00;101371.00;5165385;28;20466;-56
2022/12/06 09:52:32;;;;;;;18.10;7.45;;;5.40;99.90;;;5.17;100.00;101369.44;5166024;28;20089;-55
2022/12/06 09:55:21;;;;;;;17.13;7.30;;;5.40;99.90;;;5.17;100.00;101359.97;5165390;28;20093;-57
2022/12/06 09:58:00;;;;;;;20.52;7.35;;;5.40;99.90;;;5.18;100.00;101359.19;5166119;28;20491;-55
2022/12/06 10:00:41;;;;;;;21.48;8.00;;;5.40;99.90;;;5.21;100.00;101350.72;5165189;28;20050;-56
2022/12/06 10:03:35;;;;;;;18.65;7.80;;;5.40;99.90;;;5.26;100.00;101356.19;5160351;28;20042;-56
2022/12/06 10:06:12;;;;;;;17.08;6.55;;;5.50;99.90;;;5.28;100.00;101357.19;5166111;28;20052;-55
2022/12/06 10:09:30;;;;;;;17.10;6.60;;;5.50;99.90;;;5.31;100.00;101360.88;5165732;28;20129;-56
2022/12/06 10:12:20;;;;;;;18.73;6.88;;;5.50;99.90;;;5.33;100.00;101359.28;5166142;28;20070;-56
2022/12/06 10:15:15;;;;;;;19.42;7.40;;;5.50;99.90;;;5.37;100.00;101356.09;5165370;28;20042;-56
2022/12/06 10:18:06;;;;;;;21.23;8.75;;;5.60;99.90;;;5.37;100.00;101350.94;5165518;28;20050;-56
2022/12/06 10:20:51;;;;;;;23.40;7.82;;;5.60;99.90;;;5.39;100.00;101356.19;5165025;28;20046;-56
2022/12/06 10:23:42;;;;;;;22.65;9.35;;;5.60;99.90;;;5.38;100.00;101346.66;5165492;28;20034;-57
2022/12/06 10:26:17;;;;;;;21.85;8.80;;;5.60;99.90;;;5.41;100.00;101347.75;5165690;28;20042;-55
2022/12/06 10:29:01;;;;;;;23.70;8.70;;;5.60;99.90;;;5.41;100.00;101344.25;5166356;28;20133;-56
2022/12/06 10:31:43;;;;;;;22.90;7.72;;;5.60;99.90;;;5.44;100.00;101339.28;5166621;28;20514;-55
2022/12/06 10:34:21;;;;;;;17.65;7.38;;;5.60;99.90;;;5.49;100.00;101339.59;5165357;28;20055;-55
2022/12/06 10:37:03;;;;;;;17.95;7.75;;;5.70;99.90;;;5.52;100.00;101338.06;5165162;28;20056;-57
2022/12/06 10:39:47;;;;;;;17.80;7.75;;;5.70;99.90;;;5.54;100.00;101330.41;5164756;28;20126;-55
2022/12/06 10:42:32;;;;;;;21.10;7.22;;;5.70;99.90;;;5.55;100.00;101327.06;5165237;28;20050;-56
2022/12/06 10:48:09;;;;;;;14.50;5.93;;;5.80;99.90;;;5.59;100.00;101329.91;5164647;28;20124;-56
2022/12/06 10:50:44;;;;;;;17.73;7.70;;;5.80;99.90;;;5.59;100.00;101322.16;5164736;28;20053;-55
2022/12/06 10:53:18;;;;;;;17.88;6.97;;;5.80;99.90;;;5.60;100.00;101313.59;5164775;28;20085;-55
2022/12/06 10:55:58;;;;;;;16.40;6.05;;;5.80;99.90;;;5.63;100.00;101315.50;5164515;28;20419;-55
2022/12/06 10:58:38;;;;;;;16.67;6.22;;;5.80;99.90;;;5.61;100.00;101312.81;5164993;28;20050;-57
2022/12/06 11:01:18;;;;;;;13.23;5.72;;;5.80;99.90;;;5.63;100.00;101311.22;5163994;28;20046;-55
2022/12/06 11:03:59;;;;;;;13.27;6.18;;;5.80;99.90;;;5.72;100.00;101316.94;5165673;28;20049;-55
2022/12/06 11:06:37;;;;;;;13.90;6.22;;;5.90;99.90;;;5.78;100.00;101315.53;5164122;28;20120;-56
2022/12/06 11:09:20;;;;;;;15.95;6.43;;;5.90;99.90;;;5.80;100.00;101313.94;5162798;28;20054;-56
2022/12/06 11:11:52;;;;;;;12.15;5.22;;;6.00;99.90;;;5.81;100.00;101310.56;5163535;28;20042;-55
2022/12/06 11:14:32;;;;;;;16.27;6.00;;;6.00;99.90;;;5.82;100.00;101312.34;5162594;28;20045;-54
2022/12/06 11:17:09;;;;;;;14.38;6.18;;;6.00;99.90;;;5.82;100.00;101315.84;5163053;28;20074;-59
2022/12/06 11:19:48;;;;;;;13.32;6.13;;;6.00;99.90;;;5.84;100.00;101310.75;5163970;28;20308;-56